createdAt,value
2023-05-16T00:02:08.175Z,8.70
2023-05-16T00:07:17.589Z,6.15
2023-05-16T00:12:26.164Z,8.50
2023-05-16T00:17:35.520Z,7.49
2023-05-16T00:22:44.131Z,7.22
2023-05-16T00:27:52.890Z,8.32
2023-05-16T00:33:01.299Z,5.96
2023-05-16T00:38:09.812Z,7.38
2023-05-16T00:43:18.238Z,6.33
2023-05-16T00:48:27.140Z,8.16
2023-05-16T00:53:35.404Z,7.89
2023-05-16T00:58:44.514Z,6.59
2023-05-16T01:03:53.300Z,5.55
2023-05-16T01:09:01.791Z,7.54
2023-05-16T01:14:10.391Z,6.89
2023-05-16T01:19:19.968Z,6.76
2023-05-16T01:24:28.817Z,6.78
2023-05-16T01:29:37.539Z,6.44
2023-05-16T01:34:46.039Z,7.16
2023-05-16T01:39:55.201Z,6.29
2023-05-16T01:45:03.866Z,6.40
2023-05-16T01:50:12.878Z,7.44
2023-05-16T01:55:21.693Z,7.65
2023-05-16T02:00:30.745Z,7.79
2023-05-16T02:05:42.142Z,6.73
2023-05-16T02:10:41.030Z,7.91
2023-05-16T02:15:49.822Z,8.53
2023-05-16T02:20:58.770Z,9.41
2023-05-16T02:26:07.449Z,11.16
2023-05-16T02:31:16.070Z,10.55
2023-05-16T02:36:24.524Z,10.47
2023-05-16T02:41:33.325Z,13.74
2023-05-16T02:46:42.028Z,11.85
2023-05-16T02:51:50.562Z,17.45
2023-05-16T02:56:59.411Z,14.35
2023-05-16T03:02:08.923Z,16.21
2023-05-16T03:07:17.308Z,16.07
2023-05-16T03:12:26.117Z,15.08
2023-05-16T03:17:35.375Z,16.23
2023-05-16T03:22:44.254Z,18.73
2023-05-16T03:27:52.452Z,18.20
2023-05-16T03:33:01.546Z,16.48
2023-05-16T03:38:10.006Z,16.69
2023-05-16T03:43:19.088Z,20.37
2023-05-16T03:48:27.853Z,17.19
2023-05-16T03:53:36.845Z,16.29
2023-05-16T03:58:45.098Z,15.19
2023-05-16T04:03:54.149Z,15.16
2023-05-16T04:09:02.794Z,15.02
2023-05-16T04:14:11.566Z,17.31
2023-05-16T04:19:21.224Z,17.50
2023-05-16T04:24:30.660Z,14.31
2023-05-16T04:29:39.028Z,20.49
2023-05-16T04:34:48.223Z,15.80
2023-05-16T04:39:57.595Z,16.78
2023-05-16T04:45:06.378Z,15.55
2023-05-16T04:50:14.964Z,18.39
2023-05-16T04:55:23.739Z,17.71
2023-05-16T05:00:33.001Z,16.40
2023-05-16T05:05:42.309Z,17.87
2023-05-16T05:10:50.957Z,16.09
2023-05-16T05:15:59.852Z,17.15
2023-05-16T05:21:08.342Z,14.92
2023-05-16T05:26:17.439Z,17.46
2023-05-16T05:36:35.299Z,19.68
2023-05-16T06:07:22.296Z,16.81
2023-05-16T06:12:30.898Z,13.64
2023-05-16T06:17:40.378Z,14.98
2023-05-16T06:27:58.278Z,18.59
2023-05-16T06:33:06.684Z,16.19
2023-05-16T06:38:15.606Z,16.32
2023-05-16T06:43:24.106Z,15.27
2023-05-16T06:48:33.307Z,14.49
2023-05-16T06:53:42.229Z,15.70
2023-05-16T06:58:51.579Z,14.47
2023-05-16T07:04:00.447Z,15.14
2023-05-16T07:09:09.130Z,15.76
2023-05-16T07:14:18.502Z,15.56
2023-05-16T07:19:27.613Z,14.47
2023-05-16T07:24:36.170Z,16.88
2023-05-16T07:29:45.534Z,14.59
2023-05-16T07:34:57.490Z,14.22
2023-05-16T07:39:56.375Z,15.11
2023-05-16T07:45:05.159Z,13.46
2023-05-16T07:50:14.331Z,14.18
2023-05-16T07:55:22.982Z,13.95
2023-05-16T08:00:31.930Z,16.10
2023-05-16T08:05:40.733Z,15.31
2023-05-16T08:10:50.043Z,13.76
2023-05-16T08:15:59.045Z,12.11
2023-05-16T08:21:08.542Z,14.74
2023-05-16T08:26:17.500Z,15.77
2023-05-16T08:31:26.868Z,12.13
2023-05-16T08:36:35.470Z,13.10
2023-05-16T08:41:44.429Z,12.82
2023-05-16T08:46:53.328Z,17.05
2023-05-16T08:52:03.027Z,15.36
2023-05-16T08:57:11.624Z,13.89
2023-05-16T09:02:21.198Z,11.36
2023-05-16T09:07:30.033Z,11.66
2023-05-16T09:12:38.856Z,12.58
2023-05-16T09:17:47.739Z,12.56
2023-05-16T09:22:56.307Z,13.22
2023-05-16T09:28:05.049Z,14.45
2023-05-16T09:33:14.152Z,14.71
2023-05-16T09:38:22.881Z,12.73
2023-05-16T09:43:31.916Z,13.01
2023-05-16T09:48:40.799Z,10.62
2023-05-16T09:53:49.860Z,10.93
2023-05-16T09:58:58.934Z,9.72
2023-05-16T10:04:07.912Z,10.73
2023-05-16T10:09:16.665Z,11.09
2023-05-16T10:14:25.733Z,9.27
2023-05-16T10:19:34.762Z,9.82
2023-05-16T10:24:44.057Z,13.30
2023-05-16T10:29:54.968Z,9.29
2023-05-16T10:35:01.978Z,10.56
2023-05-16T10:40:11.597Z,9.15
2023-05-16T10:45:21.455Z,9.10
2023-05-16T10:50:30.240Z,11.67
2023-05-16T10:55:39.193Z,8.36
2023-05-16T11:00:48.058Z,10.75
2023-05-16T11:05:57.245Z,9.33
2023-05-16T11:11:06.122Z,8.00
2023-05-16T11:16:15.717Z,7.63
2023-05-16T11:21:24.684Z,8.06
2023-05-16T11:26:34.144Z,10.18
2023-05-16T11:31:43.032Z,9.24
2023-05-16T11:36:51.900Z,10.62
2023-05-16T11:42:00.636Z,10.38
2023-05-16T11:47:10.465Z,12.14
2023-05-16T11:52:19.069Z,10.11
2023-05-16T11:57:27.986Z,10.61
2023-05-16T12:02:37.633Z,11.82
2023-05-16T12:07:46.801Z,10.51
2023-05-16T12:12:55.509Z,9.54
2023-05-16T12:18:04.815Z,8.02
2023-05-16T12:23:13.597Z,12.04
2023-05-16T12:28:22.677Z,10.19
2023-05-16T12:33:32.722Z,7.14
2023-05-16T12:38:42.226Z,9.68
2023-05-16T12:43:50.965Z,9.40
2023-05-16T12:49:00.104Z,11.20
2023-05-16T12:54:10.453Z,7.39
2023-05-16T12:59:17.724Z,8.53
2023-05-16T13:04:26.457Z,8.11
2023-05-16T13:09:35.185Z,11.78
2023-05-16T13:14:44.094Z,15.19
2023-05-16T13:19:53.724Z,11.50
2023-05-16T13:25:03.519Z,18.10
2023-05-16T13:30:12.602Z,14.67
2023-05-16T13:35:21.818Z,16.33
2023-05-16T13:40:31.156Z,10.34
2023-05-16T13:45:40.103Z,10.00
2023-05-16T13:50:49.498Z,9.97
2023-05-16T13:55:58.300Z,11.03
2023-05-16T14:01:08.025Z,8.58
2023-05-16T14:06:16.972Z,11.91
2023-05-16T14:11:28.864Z,8.65
2023-05-16T14:16:36.523Z,10.53
2023-05-16T14:21:44.757Z,8.45
2023-05-16T14:26:58.377Z,9.82
2023-05-16T14:31:57.417Z,12.67
2023-05-16T14:37:06.730Z,7.01
2023-05-16T14:42:16.101Z,12.14
2023-05-16T14:47:25.007Z,11.28
2023-05-16T14:52:34.020Z,7.63
2023-05-16T14:57:45.219Z,11.17
2023-05-16T15:02:52.559Z,8.72
2023-05-16T15:07:51.691Z,8.01
2023-05-16T15:13:01.567Z,6.35
2023-05-16T15:18:11.268Z,6.76
2023-05-16T15:23:20.761Z,6.19
2023-05-16T15:28:29.692Z,6.04
2023-05-16T15:33:39.668Z,9.35
2023-05-16T15:38:48.182Z,6.00
2023-05-16T15:43:57.819Z,6.78
2023-05-16T15:49:06.768Z,7.07
2023-05-16T15:54:16.249Z,7.51
2023-05-16T15:59:24.953Z,7.63
2023-05-16T16:04:33.951Z,8.31
2023-05-16T16:09:42.645Z,6.54
2023-05-16T16:14:52.113Z,7.37
2023-05-16T16:20:01.254Z,4.42
2023-05-16T16:25:09.956Z,9.49
2023-05-16T16:30:18.662Z,7.19
2023-05-16T16:35:28.627Z,6.13
2023-05-16T16:40:35.948Z,8.10
2023-05-16T16:45:45.354Z,7.24
2023-05-16T16:50:54.160Z,5.75
2023-05-16T16:56:03.039Z,9.33
2023-05-16T17:01:11.899Z,7.25
2023-05-16T17:06:20.976Z,9.39
2023-05-16T17:11:30.071Z,8.52
2023-05-16T17:16:39.214Z,7.16
2023-05-16T17:21:48.494Z,6.35
2023-05-16T17:26:57.689Z,6.01
2023-05-16T17:32:06.485Z,5.63
2023-05-16T17:37:15.426Z,6.46
2023-05-16T17:42:24.420Z,5.32
2023-05-16T17:47:33.259Z,7.61
2023-05-16T17:52:42.340Z,5.84
2023-05-16T17:57:51.335Z,5.43
2023-05-16T18:03:00.337Z,7.80
2023-05-16T18:08:10.223Z,5.06
2023-05-16T18:13:18.844Z,5.04
2023-05-16T18:28:48.156Z,6.15
2023-05-16T18:33:47.156Z,5.59
2023-05-16T18:38:56.583Z,4.46
2023-05-16T18:44:05.557Z,7.38
2023-05-16T18:49:14.680Z,5.87
2023-05-16T18:54:24.458Z,6.17
2023-05-16T18:59:31.887Z,6.52
2023-05-16T19:04:40.756Z,5.09
2023-05-16T19:09:53.159Z,8.30
2023-05-16T19:14:51.801Z,5.93
2023-05-16T19:20:01.854Z,7.33
2023-05-16T19:25:10.050Z,8.45
2023-05-16T19:30:19.164Z,8.72
2023-05-16T19:35:27.719Z,10.28
2023-05-16T19:40:36.273Z,9.38
2023-05-16T19:45:44.553Z,9.18
2023-05-16T19:50:53.797Z,9.04
2023-05-16T19:56:02.573Z,9.61
2023-05-16T20:01:11.185Z,7.28
2023-05-16T20:06:19.862Z,8.34
2023-05-16T20:11:29.241Z,9.08
2023-05-16T20:16:38.451Z,8.84
2023-05-16T20:21:48.154Z,7.48
2023-05-16T20:26:56.895Z,6.90
2023-05-16T20:32:06.217Z,8.53
2023-05-16T20:37:14.963Z,7.18
2023-05-16T20:42:24.346Z,6.75
2023-05-16T20:47:34.031Z,7.40
2023-05-16T20:52:43.079Z,6.74
2023-05-16T20:57:51.476Z,8.22
2023-05-16T21:03:00.751Z,7.38
2023-05-16T21:08:09.565Z,7.53
2023-05-16T21:13:18.474Z,8.43
2023-05-16T21:18:27.473Z,7.60
2023-05-16T21:23:36.558Z,7.32
2023-05-16T21:28:54.464Z,8.40
2023-05-16T21:33:54.212Z,6.44
2023-05-16T21:39:03.011Z,8.90
2023-05-16T21:44:11.926Z,11.05
2023-05-16T21:49:20.643Z,7.41
2023-05-16T21:54:29.773Z,8.15
2023-05-16T21:59:38.389Z,6.31
2023-05-16T22:04:47.272Z,10.32
2023-05-16T22:09:55.742Z,7.84
2023-05-16T22:15:04.718Z,7.57
2023-05-16T22:20:13.295Z,7.50
2023-05-16T22:25:21.883Z,6.96
2023-05-16T22:30:30.686Z,10.22
2023-05-16T22:35:39.619Z,8.61
2023-05-16T22:40:48.427Z,6.28
2023-05-16T22:46:01.455Z,6.87
2023-05-16T22:50:57.172Z,6.75
2023-05-16T22:56:06.296Z,6.59
2023-05-16T23:01:15.059Z,8.95
2023-05-16T23:06:24.076Z,8.21
2023-05-16T23:11:32.912Z,7.11
2023-05-16T23:16:42.115Z,9.64
2023-05-16T23:21:50.672Z,6.46
2023-05-16T23:26:59.543Z,7.71
2023-05-16T23:32:11.643Z,7.68
2023-05-16T23:37:10.487Z,7.44
2023-05-16T23:42:19.178Z,6.23
2023-05-16T23:47:28.400Z,7.21
2023-05-16T23:52:36.925Z,8.25
2023-05-16T23:57:45.768Z,8.91
